sensor_id;sensor_type;location;lat;lon;timestamp;temperature;humidity
45906;DHT22;31619;49.008;12.106;2022-11-20T00:00:40;0.80;99.90
45906;DHT22;31619;49.008;12.106;2022-11-20T00:03:06;0.80;99.90
45906;DHT22;31619;49.008;12.106;2022-11-20T00:05:34;0.80;99.90
45906;DHT22;31619;49.008;12.106;2022-11-20T00:08:00;0.90;99.90
45906;DHT22;31619;49.008;12.106;2022-11-20T00:10:26;0.90;99.90
45906;DHT22;31619;49.008;12.106;2022-11-20T00:12:51;0.90;99.90
45906;DHT22;31619;49.008;12.106;2022-11-20T00:15:17;0.80;99.90
45906;DHT22;31619;49.008;12.106;2022-11-20T00:17:43;0.90;99.90
45906;DHT22;31619;49.008;12.106;2022-11-20T00:20:09;0.90;99.90
45906;DHT22;31619;49.008;12.106;2022-11-20T00:22:35;0.80;99.90
45906;DHT22;31619;49.008;12.106;2022-11-20T00:25:00;0.70;99.90
45906;DHT22;31619;49.008;12.106;2022-11-20T00:27:26;0.70;99.90
45906;DHT22;31619;49.008;12.106;2022-11-20T00:29:51;0.70;99.90
45906;DHT22;31619;49.008;12.106;2022-11-20T00:32:17;0.80;99.90
45906;DHT22;31619;49.008;12.106;2022-11-20T00:34:42;0.80;99.90
45906;DHT22;31619;49.008;12.106;2022-11-20T00:37:08;0.80;99.90
45906;DHT22;31619;49.008;12.106;2022-11-20T00:39:34;0.80;99.90
45906;DHT22;31619;49.008;12.106;2022-11-20T00:41:59;0.80;99.90
45906;DHT22;31619;49.008;12.106;2022-11-20T00:44:25;0.80;99.90
45906;DHT22;31619;49.008;12.106;2022-11-20T00:46:50;0.90;99.90
45906;DHT22;31619;49.008;12.106;2022-11-20T00:49:16;0.80;99.90
45906;DHT22;31619;49.008;12.106;2022-11-20T00:51:41;0.80;99.90
45906;DHT22;31619;49.008;12.106;2022-11-20T00:54:07;0.80;99.90
45906;DHT22;31619;49.008;12.106;2022-11-20T00:56:33;0.90;99.90
45906;DHT22;31619;49.008;12.106;2022-11-20T00:59:00;1.00;99.90
45906;DHT22;31619;49.008;12.106;2022-11-20T01:01:26;0.90;99.90
45906;DHT22;31619;49.008;12.106;2022-11-20T01:03:56;0.90;99.90
45906;DHT22;31619;49.008;12.106;2022-11-20T01:08:48;0.90;99.90
45906;DHT22;31619;49.008;12.106;2022-11-20T01:11:21;0.90;99.90
45906;DHT22;31619;49.008;12.106;2022-11-20T01:13:48;0.90;99.90
45906;DHT22;31619;49.008;12.106;2022-11-20T01:16:19;1.00;99.90
45906;DHT22;31619;49.008;12.106;2022-11-20T01:18:47;1.00;99.90
45906;DHT22;31619;49.008;12.106;2022-11-20T01:21:18;1.10;99.90
45906;DHT22;31619;49.008;12.106;2022-11-20T01:23:45;1.10;99.90
45906;DHT22;31619;49.008;12.106;2022-11-20T01:26:19;1.20;99.90
45906;DHT22;31619;49.008;12.106;2022-11-20T01:28:46;1.10;99.90
45906;DHT22;31619;49.008;12.106;2022-11-20T01:31:13;1.20;99.90
45906;DHT22;31619;49.008;12.106;2022-11-20T01:33:40;1.10;99.90
45906;DHT22;31619;49.008;12.106;2022-11-20T01:36:07;1.10;99.90
45906;DHT22;31619;49.008;12.106;2022-11-20T01:38:33;1.20;99.90
45906;DHT22;31619;49.008;12.106;2022-11-20T01:40:58;1.30;99.90
45906;DHT22;31619;49.008;12.106;2022-11-20T01:43:24;1.30;99.90
45906;DHT22;31619;49.008;12.106;2022-11-20T01:46:12;1.30;99.90
45906;DHT22;31619;49.008;12.106;2022-11-20T01:54:17;1.40;99.90
45906;DHT22;31619;49.008;12.106;2022-11-20T01:56:44;1.50;99.90
45906;DHT22;31619;49.008;12.106;2022-11-20T01:59:13;1.50;99.90
45906;DHT22;31619;49.008;12.106;2022-11-20T02:01:41;1.50;99.90
45906;DHT22;31619;49.008;12.106;2022-11-20T02:04:07;1.50;99.90
45906;DHT22;31619;49.008;12.106;2022-11-20T02:06:47;1.60;99.90
45906;DHT22;31619;49.008;12.106;2022-11-20T02:09:14;1.50;99.90
45906;DHT22;31619;49.008;12.106;2022-11-20T02:11:40;1.50;99.90
45906;DHT22;31619;49.008;12.106;2022-11-20T02:14:05;1.50;99.90
45906;DHT22;31619;49.008;12.106;2022-11-20T02:16:35;1.60;99.90
45906;DHT22;31619;49.008;12.106;2022-11-20T02:19:04;1.50;99.90
45906;DHT22;31619;49.008;12.106;2022-11-20T02:21:46;1.30;99.90
45906;DHT22;31619;49.008;12.106;2022-11-20T02:24:14;1.40;99.90
45906;DHT22;31619;49.008;12.106;2022-11-20T02:29:08;1.50;99.90
45906;DHT22;31619;49.008;12.106;2022-11-20T02:31:40;1.40;99.90
45906;DHT22;31619;49.008;12.106;2022-11-20T02:34:07;1.30;99.90
45906;DHT22;31619;49.008;12.106;2022-11-20T02:36:33;1.30;99.90
45906;DHT22;31619;49.008;12.106;2022-11-20T02:39:01;1.40;99.90
45906;DHT22;31619;49.008;12.106;2022-11-20T02:41:32;1.60;99.90
45906;DHT22;31619;49.008;12.106;2022-11-20T02:43:58;1.60;99.90
45906;DHT22;31619;49.008;12.106;2022-11-20T02:46:24;1.60;99.90
45906;DHT22;31619;49.008;12.106;2022-11-20T02:48:49;1.70;99.90
45906;DHT22;31619;49.008;12.106;2022-11-20T02:51:15;1.70;99.90
45906;DHT22;31619;49.008;12.106;2022-11-20T02:53:41;1.70;99.90
45906;DHT22;31619;49.008;12.106;2022-11-20T02:56:07;1.60;99.90
45906;DHT22;31619;49.008;12.106;2022-11-20T02:58:32;1.60;99.90
45906;DHT22;31619;49.008;12.106;2022-11-20T03:00:58;1.50;99.90
45906;DHT22;31619;49.008;12.106;2022-11-20T03:03:23;1.60;99.90
45906;DHT22;31619;49.008;12.106;2022-11-20T03:05:49;1.50;99.90
45906;DHT22;31619;49.008;12.106;2022-11-20T03:08:15;1.50;99.90
45906;DHT22;31619;49.008;12.106;2022-11-20T03:10:40;1.40;99.90
45906;DHT22;31619;49.008;12.106;2022-11-20T03:13:06;1.20;99.90
45906;DHT22;31619;49.008;12.106;2022-11-20T03:15:31;1.20;99.90
45906;DHT22;31619;49.008;12.106;2022-11-20T03:17:57;1.20;99.90
45906;DHT22;31619;49.008;12.106;2022-11-20T03:20:23;1.20;99.90
45906;DHT22;31619;49.008;12.106;2022-11-20T03:22:49;1.10;99.90
45906;DHT22;31619;49.008;12.106;2022-11-20T03:25:14;1.20;99.90
45906;DHT22;31619;49.008;12.106;2022-11-20T03:27:40;1.20;99.90
45906;DHT22;31619;49.008;12.106;2022-11-20T03:30:06;1.10;99.90
45906;DHT22;31619;49.008;12.106;2022-11-20T03:32:32;1.00;99.90
45906;DHT22;31619;49.008;12.106;2022-11-20T03:34:58;1.00;99.90
45906;DHT22;31619;49.008;12.106;2022-11-20T03:37:23;1.10;99.90
45906;DHT22;31619;49.008;12.106;2022-11-20T03:39:49;1.00;99.90
45906;DHT22;31619;49.008;12.106;2022-11-20T03:42:14;1.10;99.90
45906;DHT22;31619;49.008;12.106;2022-11-20T03:44:58;1.00;99.90
45906;DHT22;31619;49.008;12.106;2022-11-20T03:47:24;1.00;99.90
45906;DHT22;31619;49.008;12.106;2022-11-20T03:49:50;1.10;99.90
45906;DHT22;31619;49.008;12.106;2022-11-20T03:52:15;1.10;99.90
45906;DHT22;31619;49.008;12.106;2022-11-20T03:54:41;1.10;99.90
45906;DHT22;31619;49.008;12.106;2022-11-20T03:57:06;1.20;99.90
45906;DHT22;31619;49.008;12.106;2022-11-20T03:59:32;1.10;99.90
45906;DHT22;31619;49.008;12.106;2022-11-20T04:01:57;1.20;99.90
45906;DHT22;31619;49.008;12.106;2022-11-20T04:04:23;1.20;99.90
45906;DHT22;31619;49.008;12.106;2022-11-20T04:06:49;1.10;99.90
45906;DHT22;31619;49.008;12.106;2022-11-20T04:09:14;1.10;99.90
45906;DHT22;31619;49.008;12.106;2022-11-20T04:11:41;1.30;99.90
45906;DHT22;31619;49.008;12.106;2022-11-20T04:14:13;1.30;99.90
45906;DHT22;31619;49.008;12.106;2022-11-20T04:16:39;1.30;99.90
45906;DHT22;31619;49.008;12.106;2022-11-20T04:19:08;1.30;99.90
45906;DHT22;31619;49.008;12.106;2022-11-20T04:21:34;1.30;99.90
45906;DHT22;31619;49.008;12.106;2022-11-20T04:24:00;1.40;99.90
45906;DHT22;31619;49.008;12.106;2022-11-20T04:26:27;1.40;99.90
45906;DHT22;31619;49.008;12.106;2022-11-20T04:28:53;1.30;99.90
45906;DHT22;31619;49.008;12.106;2022-11-20T04:31:24;1.30;99.90
45906;DHT22;31619;49.008;12.106;2022-11-20T04:33:50;1.30;99.90
45906;DHT22;31619;49.008;12.106;2022-11-20T04:36:18;1.40;99.90
45906;DHT22;31619;49.008;12.106;2022-11-20T04:38:44;1.30;99.90
45906;DHT22;31619;49.008;12.106;2022-11-20T04:41:15;1.40;99.90
45906;DHT22;31619;49.008;12.106;2022-11-20T04:43:41;1.40;99.90
45906;DHT22;31619;49.008;12.106;2022-11-20T04:46:06;1.50;99.90
45906;DHT22;31619;49.008;12.106;2022-11-20T04:48:32;1.40;99.90
45906;DHT22;31619;49.008;12.106;2022-11-20T04:50:57;1.40;99.90
45906;DHT22;31619;49.008;12.106;2022-11-20T04:53:27;1.40;99.90
45906;DHT22;31619;49.008;12.106;2022-11-20T04:56:00;1.40;99.90
45906;DHT22;31619;49.008;12.106;2022-11-20T04:58:25;1.50;99.90
45906;DHT22;31619;49.008;12.106;2022-11-20T05:00:51;1.50;99.90
45906;DHT22;31619;49.008;12.106;2022-11-20T05:03:17;1.40;99.90
45906;DHT22;31619;49.008;12.106;2022-11-20T05:05:42;1.30;99.90
45906;DHT22;31619;49.008;12.106;2022-11-20T05:08:08;1.40;99.90
45906;DHT22;31619;49.008;12.106;2022-11-20T05:10:33;1.50;99.90
45906;DHT22;31619;49.008;12.106;2022-11-20T05:12:59;1.50;99.90
45906;DHT22;31619;49.008;12.106;2022-11-20T05:15:24;1.50;99.90
45906;DHT22;31619;49.008;12.106;2022-11-20T05:17:51;1.40;99.90
45906;DHT22;31619;49.008;12.106;2022-11-20T05:20:17;1.30;99.90
45906;DHT22;31619;49.008;12.106;2022-11-20T05:22:44;1.40;99.90
45906;DHT22;31619;49.008;12.106;2022-11-20T05:25:10;1.40;99.90
45906;DHT22;31619;49.008;12.106;2022-11-20T05:27:36;1.50;99.90
45906;DHT22;31619;49.008;12.106;2022-11-20T05:30:03;1.40;99.90
45906;DHT22;31619;49.008;12.106;2022-11-20T05:32:28;1.40;99.90
45906;DHT22;31619;49.008;12.106;2022-11-20T05:34:54;1.50;99.90
45906;DHT22;31619;49.008;12.106;2022-11-20T05:37:20;1.50;99.90
45906;DHT22;31619;49.008;12.106;2022-11-20T05:39:45;1.50;99.90
45906;DHT22;31619;49.008;12.106;2022-11-20T05:42:11;1.60;99.90
45906;DHT22;31619;49.008;12.106;2022-11-20T05:44:55;1.60;99.90
45906;DHT22;31619;49.008;12.106;2022-11-20T05:47:21;1.70;99.90
45906;DHT22;31619;49.008;12.106;2022-11-20T05:49:47;1.60;99.90
45906;DHT22;31619;49.008;12.106;2022-11-20T05:52:12;1.60;99.90
45906;DHT22;31619;49.008;12.106;2022-11-20T05:54:38;1.50;99.90
45906;DHT22;31619;49.008;12.106;2022-11-20T05:57:03;1.50;99.90
45906;DHT22;31619;49.008;12.106;2022-11-20T05:59:29;1.50;99.90
45906;DHT22;31619;49.008;12.106;2022-11-20T06:01:55;1.50;99.90
45906;DHT22;31619;49.008;12.106;2022-11-20T06:04:20;1.50;99.90
45906;DHT22;31619;49.008;12.106;2022-11-20T06:06:46;1.50;99.90
45906;DHT22;31619;49.008;12.106;2022-11-20T06:09:11;1.50;99.90
45906;DHT22;31619;49.008;12.106;2022-11-20T06:11:37;1.60;99.90
45906;DHT22;31619;49.008;12.106;2022-11-20T06:14:02;1.50;99.90
45906;DHT22;31619;49.008;12.106;2022-11-20T06:16:28;1.50;99.90
45906;DHT22;31619;49.008;12.106;2022-11-20T06:18:54;1.60;99.90
45906;DHT22;31619;49.008;12.106;2022-11-20T06:21:21;1.60;99.90
45906;DHT22;31619;49.008;12.106;2022-11-20T06:23:48;1.60;99.90
45906;DHT22;31619;49.008;12.106;2022-11-20T06:26:25;1.60;99.90
45906;DHT22;31619;49.008;12.106;2022-11-20T06:28:52;1.60;99.90
45906;DHT22;31619;49.008;12.106;2022-11-20T06:31:20;1.60;99.90
45906;DHT22;31619;49.008;12.106;2022-11-20T06:33:46;1.60;99.90
45906;DHT22;31619;49.008;12.106;2022-11-20T06:36:13;1.60;99.90
45906;DHT22;31619;49.008;12.106;2022-11-20T06:38:39;1.70;99.90
45906;DHT22;31619;49.008;12.106;2022-11-20T06:41:07;1.70;99.90
45906;DHT22;31619;49.008;12.106;2022-11-20T06:43:35;1.70;99.90
45906;DHT22;31619;49.008;12.106;2022-11-20T06:46:00;1.80;99.90
45906;DHT22;31619;49.008;12.106;2022-11-20T06:48:27;1.80;99.90
45906;DHT22;31619;49.008;12.106;2022-11-20T06:50:53;1.80;99.90
45906;DHT22;31619;49.008;12.106;2022-11-20T06:53:18;1.90;99.90
45906;DHT22;31619;49.008;12.106;2022-11-20T06:55:45;1.90;99.90
45906;DHT22;31619;49.008;12.106;2022-11-20T06:58:12;1.90;99.90
45906;DHT22;31619;49.008;12.106;2022-11-20T07:00:38;1.90;99.90
45906;DHT22;31619;49.008;12.106;2022-11-20T07:03:08;1.90;99.90
45906;DHT22;31619;49.008;12.106;2022-11-20T07:05:35;1.80;99.90
45906;DHT22;31619;49.008;12.106;2022-11-20T07:08:01;1.70;99.90
45906;DHT22;31619;49.008;12.106;2022-11-20T07:10:27;1.80;99.90
45906;DHT22;31619;49.008;12.106;2022-11-20T07:12:53;1.90;99.90
45906;DHT22;31619;49.008;12.106;2022-11-20T07:15:21;1.90;99.90
45906;DHT22;31619;49.008;12.106;2022-11-20T07:17:47;2.00;99.90
45906;DHT22;31619;49.008;12.106;2022-11-20T07:20:13;2.10;99.90
45906;DHT22;31619;49.008;12.106;2022-11-20T07:22:39;2.10;99.90
45906;DHT22;31619;49.008;12.106;2022-11-20T07:25:05;2.20;99.90
45906;DHT22;31619;49.008;12.106;2022-11-20T07:27:31;2.30;99.90
45906;DHT22;31619;49.008;12.106;2022-11-20T07:29:57;2.40;99.90
45906;DHT22;31619;49.008;12.106;2022-11-20T07:32:22;2.30;99.90
45906;DHT22;31619;49.008;12.106;2022-11-20T07:34:48;2.30;99.90
45906;DHT22;31619;49.008;12.106;2022-11-20T07:37:14;2.30;99.90
45906;DHT22;31619;49.008;12.106;2022-11-20T07:39:40;2.30;99.90
45906;DHT22;31619;49.008;12.106;2022-11-20T07:42:06;2.30;99.90
45906;DHT22;31619;49.008;12.106;2022-11-20T07:44:32;2.40;99.90
45906;DHT22;31619;49.008;12.106;2022-11-20T07:46:58;2.50;99.90
45906;DHT22;31619;49.008;12.106;2022-11-20T07:49:23;2.80;99.90
45906;DHT22;31619;49.008;12.106;2022-11-20T07:51:52;2.90;99.90
45906;DHT22;31619;49.008;12.106;2022-11-20T07:54:21;2.90;99.90
45906;DHT22;31619;49.008;12.106;2022-11-20T07:56:48;3.00;99.90
45906;DHT22;31619;49.008;12.106;2022-11-20T07:59:14;2.90;99.90
45906;DHT22;31619;49.008;12.106;2022-11-20T08:01:41;3.00;99.90
45906;DHT22;31619;49.008;12.106;2022-11-20T08:04:07;3.00;99.90
45906;DHT22;31619;49.008;12.106;2022-11-20T08:06:33;3.20;99.90
45906;DHT22;31619;49.008;12.106;2022-11-20T08:08:59;3.30;99.90
45906;DHT22;31619;49.008;12.106;2022-11-20T08:11:24;3.50;99.90
45906;DHT22;31619;49.008;12.106;2022-11-20T08:14:09;3.60;99.90
45906;DHT22;31619;49.008;12.106;2022-11-20T08:16:47;3.70;99.90
45906;DHT22;31619;49.008;12.106;2022-11-20T08:19:14;3.70;99.90
45906;DHT22;31619;49.008;12.106;2022-11-20T08:21:40;3.70;99.90
45906;DHT22;31619;49.008;12.106;2022-11-20T08:24:07;3.80;99.90
45906;DHT22;31619;49.008;12.106;2022-11-20T08:26:33;3.90;99.90
45906;DHT22;31619;49.008;12.106;2022-11-20T08:28:59;4.00;99.90
45906;DHT22;31619;49.008;12.106;2022-11-20T08:31:26;3.80;99.90
45906;DHT22;31619;49.008;12.106;2022-11-20T08:33:52;3.70;99.90
45906;DHT22;31619;49.008;12.106;2022-11-20T08:36:19;3.70;99.90
45906;DHT22;31619;49.008;12.106;2022-11-20T08:38:52;3.80;99.90
45906;DHT22;31619;49.008;12.106;2022-11-20T08:41:18;4.00;99.90
45906;DHT22;31619;49.008;12.106;2022-11-20T08:43:53;4.10;99.90
45906;DHT22;31619;49.008;12.106;2022-11-20T08:46:19;4.10;99.90
45906;DHT22;31619;49.008;12.106;2022-11-20T08:48:44;4.20;99.90
45906;DHT22;31619;49.008;12.106;2022-11-20T08:51:11;4.30;99.90
45906;DHT22;31619;49.008;12.106;2022-11-20T08:53:38;4.40;99.90
45906;DHT22;31619;49.008;12.106;2022-11-20T08:56:04;4.40;99.90
45906;DHT22;31619;49.008;12.106;2022-11-20T08:58:29;4.40;99.90
45906;DHT22;31619;49.008;12.106;2022-11-20T09:00:55;4.30;99.90
45906;DHT22;31619;49.008;12.106;2022-11-20T09:03:21;4.30;99.90
45906;DHT22;31619;49.008;12.106;2022-11-20T09:05:46;4.30;99.90
45906;DHT22;31619;49.008;12.106;2022-11-20T09:08:12;4.40;99.90
45906;DHT22;31619;49.008;12.106;2022-11-20T09:10:38;4.50;99.90
45906;DHT22;31619;49.008;12.106;2022-11-20T09:13:06;4.70;99.90
45906;DHT22;31619;49.008;12.106;2022-11-20T09:15:33;4.80;99.90
45906;DHT22;31619;49.008;12.106;2022-11-20T09:18:01;4.90;99.90
45906;DHT22;31619;49.008;12.106;2022-11-20T09:20:29;4.90;99.90
45906;DHT22;31619;49.008;12.106;2022-11-20T09:22:55;5.10;99.90
45906;DHT22;31619;49.008;12.106;2022-11-20T09:25:21;5.30;99.90
45906;DHT22;31619;49.008;12.106;2022-11-20T09:27:47;5.60;99.90
45906;DHT22;31619;49.008;12.106;2022-11-20T09:30:14;5.70;99.90
45906;DHT22;31619;49.008;12.106;2022-11-20T09:32:40;6.00;99.90
45906;DHT22;31619;49.008;12.106;2022-11-20T09:35:06;6.20;99.90
45906;DHT22;31619;49.008;12.106;2022-11-20T09:37:32;6.30;99.90
45906;DHT22;31619;49.008;12.106;2022-11-20T09:39:58;7.00;99.90
45906;DHT22;31619;49.008;12.106;2022-11-20T09:42:34;8.30;99.90
45906;DHT22;31619;49.008;12.106;2022-11-20T09:48:25;8.80;99.90
45906;DHT22;31619;49.008;12.106;2022-11-20T09:56:17;8.50;99.90
45906;DHT22;31619;49.008;12.106;2022-11-20T09:59:00;8.20;99.90
45906;DHT22;31619;49.008;12.106;2022-11-20T10:01:31;7.80;99.90
45906;DHT22;31619;49.008;12.106;2022-11-20T10:09:29;6.40;99.90
45906;DHT22;31619;49.008;12.106;2022-11-20T10:15:11;6.00;99.90
45906;DHT22;31619;49.008;12.106;2022-11-20T10:18:54;6.00;99.90
45906;DHT22;31619;49.008;12.106;2022-11-20T10:20:57;6.30;99.90
45906;DHT22;31619;49.008;12.106;2022-11-20T10:26:45;6.50;99.90
45906;DHT22;31619;49.008;12.106;2022-11-20T10:29:15;6.40;99.90
45906;DHT22;31619;49.008;12.106;2022-11-20T10:31:42;6.40;99.90
45906;DHT22;31619;49.008;12.106;2022-11-20T10:37:11;6.30;99.90
45906;DHT22;31619;49.008;12.106;2022-11-20T10:42:43;6.30;99.90
45906;DHT22;31619;49.008;12.106;2022-11-20T10:48:28;6.30;99.90
45906;DHT22;31619;49.008;12.106;2022-11-20T10:56:40;6.20;99.90
45906;DHT22;31619;49.008;12.106;2022-11-20T11:02:20;6.20;99.90
45906;DHT22;31619;49.008;12.106;2022-11-20T11:04:55;6.30;99.90
45906;DHT22;31619;49.008;12.106;2022-11-20T11:07:24;6.30;99.90
45906;DHT22;31619;49.008;12.106;2022-11-20T11:09:55;6.30;99.90
45906;DHT22;31619;49.008;12.106;2022-11-20T11:12:24;6.30;99.90
45906;DHT22;31619;49.008;12.106;2022-11-20T11:14:52;6.30;99.90
45906;DHT22;31619;49.008;12.106;2022-11-20T11:17:36;6.30;99.90
45906;DHT22;31619;49.008;12.106;2022-11-20T11:22:34;6.20;99.90
45906;DHT22;31619;49.008;12.106;2022-11-20T11:25:23;6.20;99.90
45906;DHT22;31619;49.008;12.106;2022-11-20T11:27:50;6.20;99.90
45906;DHT22;31619;49.008;12.106;2022-11-20T11:30:18;6.20;99.90
45906;DHT22;31619;49.008;12.106;2022-11-20T11:32:44;6.30;99.90
45906;DHT22;31619;49.008;12.106;2022-11-20T11:35:27;6.30;99.90
45906;DHT22;31619;49.008;12.106;2022-11-20T11:38:02;6.40;99.90
45906;DHT22;31619;49.008;12.106;2022-11-20T11:40:31;6.40;99.90
45906;DHT22;31619;49.008;12.106;2022-11-20T11:42:59;6.40;99.90
45906;DHT22;31619;49.008;12.106;2022-11-20T11:45:26;6.40;99.90
45906;DHT22;31619;49.008;12.106;2022-11-20T11:47:54;6.30;99.90
45906;DHT22;31619;49.008;12.106;2022-11-20T11:50:23;6.30;99.90
45906;DHT22;31619;49.008;12.106;2022-11-20T12:01:10;6.90;99.90
45906;DHT22;31619;49.008;12.106;2022-11-20T12:03:38;7.10;99.90
45906;DHT22;31619;49.008;12.106;2022-11-20T12:06:12;7.00;99.90
45906;DHT22;31619;49.008;12.106;2022-11-20T12:09:00;7.10;99.90
45906;DHT22;31619;49.008;12.106;2022-11-20T12:14:31;7.10;99.90
45906;DHT22;31619;49.008;12.106;2022-11-20T12:17:00;7.20;99.90
45906;DHT22;31619;49.008;12.106;2022-11-20T12:19:29;7.30;99.90
45906;DHT22;31619;49.008;12.106;2022-11-20T12:40:02;7.70;99.90
45906;DHT22;31619;49.008;12.106;2022-11-20T12:46:02;7.70;99.90
45906;DHT22;31619;49.008;12.106;2022-11-20T12:51:34;7.60;99.90
45906;DHT22;31619;49.008;12.106;2022-11-20T12:57:28;7.40;99.90
45906;DHT22;31619;49.008;12.106;2022-11-20T13:07:32;7.50;99.90
45906;DHT22;31619;49.008;12.106;2022-11-20T13:09:59;7.40;99.90
45906;DHT22;31619;49.008;12.106;2022-11-20T13:17:58;7.60;99.90
45906;DHT22;31619;49.008;12.106;2022-11-20T13:20:24;7.60;99.90
45906;DHT22;31619;49.008;12.106;2022-11-20T13:22:53;7.60;99.90
45906;DHT22;31619;49.008;12.106;2022-11-20T13:25:29;7.60;99.90
45906;DHT22;31619;49.008;12.106;2022-11-20T13:27:57;7.60;99.90
45906;DHT22;31619;49.008;12.106;2022-11-20T13:30:25;7.80;99.90
45906;DHT22;31619;49.008;12.106;2022-11-20T13:36:02;7.90;99.90
45906;DHT22;31619;49.008;12.106;2022-11-20T13:38:28;7.70;99.90
45906;DHT22;31619;49.008;12.106;2022-11-20T13:41:08;7.70;99.90
45906;DHT22;31619;49.008;12.106;2022-11-20T13:43:52;7.70;99.90
45906;DHT22;31619;49.008;12.106;2022-11-20T13:46:19;7.70;99.90
45906;DHT22;31619;49.008;12.106;2022-11-20T13:48:50;7.60;99.90
45906;DHT22;31619;49.008;12.106;2022-11-20T13:51:42;7.50;99.90
45906;DHT22;31619;49.008;12.106;2022-11-20T13:54:32;7.40;99.90
45906;DHT22;31619;49.008;12.106;2022-11-20T14:00:13;6.90;99.90
45906;DHT22;31619;49.008;12.106;2022-11-20T14:02:40;6.70;99.90
45906;DHT22;31619;49.008;12.106;2022-11-20T14:05:17;6.60;99.90
45906;DHT22;31619;49.008;12.106;2022-11-20T14:07:44;6.50;99.90
45906;DHT22;31619;49.008;12.106;2022-11-20T14:12:45;6.40;99.90
45906;DHT22;31619;49.008;12.106;2022-11-20T14:15:34;6.40;99.90
45906;DHT22;31619;49.008;12.106;2022-11-20T14:18:14;6.30;99.90
45906;DHT22;31619;49.008;12.106;2022-11-20T14:20:41;6.30;99.90
45906;DHT22;31619;49.008;12.106;2022-11-20T14:23:09;6.10;99.90
45906;DHT22;31619;49.008;12.106;2022-11-20T14:25:35;6.00;99.90
45906;DHT22;31619;49.008;12.106;2022-11-20T14:28:02;5.90;99.90
45906;DHT22;31619;49.008;12.106;2022-11-20T14:30:46;5.80;99.90
45906;DHT22;31619;49.008;12.106;2022-11-20T14:33:14;5.90;99.90
45906;DHT22;31619;49.008;12.106;2022-11-20T14:35:47;5.80;99.90
45906;DHT22;31619;49.008;12.106;2022-11-20T14:38:16;5.80;99.90
45906;DHT22;31619;49.008;12.106;2022-11-20T14:40:42;5.80;99.90
45906;DHT22;31619;49.008;12.106;2022-11-20T14:43:28;5.80;99.90
45906;DHT22;31619;49.008;12.106;2022-11-20T14:46:05;5.70;99.90
45906;DHT22;31619;49.008;12.106;2022-11-20T14:48:43;5.80;99.90
45906;DHT22;31619;49.008;12.106;2022-11-20T14:51:12;5.80;99.90
45906;DHT22;31619;49.008;12.106;2022-11-20T14:53:48;5.70;99.90
45906;DHT22;31619;49.008;12.106;2022-11-20T14:56:22;5.70;99.90
45906;DHT22;31619;49.008;12.106;2022-11-20T14:58:58;5.70;99.90
45906;DHT22;31619;49.008;12.106;2022-11-20T15:01:28;5.70;99.90
45906;DHT22;31619;49.008;12.106;2022-11-20T15:04:10;5.80;99.90
45906;DHT22;31619;49.008;12.106;2022-11-20T15:06:51;5.70;99.90
45906;DHT22;31619;49.008;12.106;2022-11-20T15:09:17;5.70;99.90
45906;DHT22;31619;49.008;12.106;2022-11-20T15:14:17;5.80;99.90
45906;DHT22;31619;49.008;12.106;2022-11-20T15:16:43;6.00;99.90
45906;DHT22;31619;49.008;12.106;2022-11-20T15:19:18;6.00;99.90
45906;DHT22;31619;49.008;12.106;2022-11-20T15:21:44;6.10;99.90
45906;DHT22;31619;49.008;12.106;2022-11-20T15:24:09;6.10;99.90
45906;DHT22;31619;49.008;12.106;2022-11-20T15:26:36;6.10;99.90
45906;DHT22;31619;49.008;12.106;2022-11-20T15:29:04;6.00;99.90
45906;DHT22;31619;49.008;12.106;2022-11-20T15:31:29;6.10;99.90
45906;DHT22;31619;49.008;12.106;2022-11-20T15:33:55;6.00;99.90
45906;DHT22;31619;49.008;12.106;2022-11-20T15:36:20;6.00;99.90
45906;DHT22;31619;49.008;12.106;2022-11-20T15:38:46;6.00;99.90
45906;DHT22;31619;49.008;12.106;2022-11-20T15:41:12;6.00;99.90
45906;DHT22;31619;49.008;12.106;2022-11-20T15:43:38;6.00;99.90
45906;DHT22;31619;49.008;12.106;2022-11-20T15:46:09;6.00;99.90
45906;DHT22;31619;49.008;12.106;2022-11-20T15:48:38;6.00;99.90
45906;DHT22;31619;49.008;12.106;2022-11-20T15:51:30;6.00;99.90
45906;DHT22;31619;49.008;12.106;2022-11-20T15:53:57;6.00;99.90
45906;DHT22;31619;49.008;12.106;2022-11-20T15:56:23;5.90;99.90
45906;DHT22;31619;49.008;12.106;2022-11-20T15:58:49;5.80;99.90
45906;DHT22;31619;49.008;12.106;2022-11-20T16:01:20;5.80;99.90
45906;DHT22;31619;49.008;12.106;2022-11-20T16:03:46;5.70;99.90
45906;DHT22;31619;49.008;12.106;2022-11-20T16:06:12;5.70;99.90
45906;DHT22;31619;49.008;12.106;2022-11-20T16:08:38;5.70;99.90
45906;DHT22;31619;49.008;12.106;2022-11-20T16:11:04;5.70;99.90
45906;DHT22;31619;49.008;12.106;2022-11-20T16:13:31;5.60;99.90
45906;DHT22;31619;49.008;12.106;2022-11-20T16:16:22;5.60;99.90
45906;DHT22;31619;49.008;12.106;2022-11-20T16:18:49;5.50;99.90
45906;DHT22;31619;49.008;12.106;2022-11-20T16:21:15;5.40;99.90
45906;DHT22;31619;49.008;12.106;2022-11-20T16:23:41;5.40;99.90
45906;DHT22;31619;49.008;12.106;2022-11-20T16:26:15;5.30;99.90
45906;DHT22;31619;49.008;12.106;2022-11-20T16:28:42;5.30;99.90
45906;DHT22;31619;49.008;12.106;2022-11-20T16:31:18;5.40;99.90
45906;DHT22;31619;49.008;12.106;2022-11-20T16:33:51;5.40;99.90
45906;DHT22;31619;49.008;12.106;2022-11-20T16:36:17;5.40;99.90
45906;DHT22;31619;49.008;12.106;2022-11-20T16:38:43;5.40;99.90
45906;DHT22;31619;49.008;12.106;2022-11-20T16:41:09;5.30;99.90
45906;DHT22;31619;49.008;12.106;2022-11-20T16:43:55;5.30;99.90
45906;DHT22;31619;49.008;12.106;2022-11-20T16:46:29;5.20;99.90
45906;DHT22;31619;49.008;12.106;2022-11-20T16:49:04;5.10;99.90
45906;DHT22;31619;49.008;12.106;2022-11-20T16:51:33;5.00;99.90
45906;DHT22;31619;49.008;12.106;2022-11-20T16:54:01;5.00;99.90
45906;DHT22;31619;49.008;12.106;2022-11-20T16:56:27;4.90;99.90
45906;DHT22;31619;49.008;12.106;2022-11-20T16:58:54;4.80;99.90
45906;DHT22;31619;49.008;12.106;2022-11-20T17:01:22;4.80;99.90
45906;DHT22;31619;49.008;12.106;2022-11-20T17:03:56;4.80;99.90
45906;DHT22;31619;49.008;12.106;2022-11-20T17:06:24;4.70;99.90
45906;DHT22;31619;49.008;12.106;2022-11-20T17:08:50;4.90;99.90
45906;DHT22;31619;49.008;12.106;2022-11-20T17:11:18;4.90;99.90
45906;DHT22;31619;49.008;12.106;2022-11-20T17:13:44;4.90;99.90
45906;DHT22;31619;49.008;12.106;2022-11-20T17:16:22;4.90;99.90
45906;DHT22;31619;49.008;12.106;2022-11-20T17:18:48;4.90;99.90
45906;DHT22;31619;49.008;12.106;2022-11-20T17:21:17;4.90;99.90
45906;DHT22;31619;49.008;12.106;2022-11-20T17:23:44;4.90;99.90
45906;DHT22;31619;49.008;12.106;2022-11-20T17:28:41;4.80;99.90
45906;DHT22;31619;49.008;12.106;2022-11-20T17:31:12;4.70;99.90
45906;DHT22;31619;49.008;12.106;2022-11-20T17:33:39;4.60;99.90
45906;DHT22;31619;49.008;12.106;2022-11-20T17:36:06;4.50;99.90